Terminal Aerodrome Forecast
Issued by NWS

Home | Current Version | Previous Version | Text Only | Print | Product List | Glossary On
Versions: 1 2 3 4 5 6 7 8 9 10 11 12 13 14 15 16
207
FTUS45 KABQ 191123
TAFSAF
TAF
KSAF 191123Z 1912/2012 19010KT P6SM VCSH BKN040 OVC100
     FM191600 20010KT P6SM BKN040 BKN090
     FM191900 23013G21KT P6SM SCT040 BKN100
     FM192200 26015G23KT P6SM VCSH OVC040
     FM200100 26010KT 5SM -SHRA BR OVC040
     FM200300 26010KT P6SM SCT025 BKN050=

USA.gov is the U.S. government's official web portal to all federal, state and local government web resources and services.